Leeton, MO (64761)

5:15 AM CDT on April 21, 2015 (GMT -0500)
Chilhowee MO US | | Change Station
CLOSE
Current Station
Personal Weather Station
Location: Chilhowee, MO
Elevation: 894 ft
Nearby Weather Stations

Elev 894 ft 38.60 °N, 93.85 °W | Updated 1 minute ago

Partly Cloudy
Partly Cloudy
44.1 °F
Feels Like 44 °F
N
0.0
Wind Variable Wind from West
Gusts 0.0 mph

Today
High -- | Low -- °F
--% Chance of Precip.
Yesterday
High -- | Low -- °F
Precip. -- in
6:30 AM 7:57 PM
Waxing Crescent, 9% visible
Pressure 29.86 in
Visibility 10.0 miles
Clouds Clear
Windchill 44 °F
Dew Point 35 °F
Humidity 69%
Rainfall 0.00 in
Snow Depth Not available.
UV 0 out of 12
Pollen 11.20 out of 12
Air Quality Not available.
Flu Activity Local Activity
METAR KSZL 210958Z AUTO 24007KT 10SM CLR 07/01 A2985 RMK AO2 SLP111 T00720008 $

More Conditions Fewer Conditions

Pressure 29.86 in
Visibility 10.0 miles
Clouds Clear
Windchill 44 °F
Dew Point 35 °F
Humidity 69%
Rainfall 0.00 in
Snow Depth Not available.
UV 0 out of 12
Pollen 11.20 out of 12
Air Quality Not available.
Flu Activity Local Activity
METAR KSZL 210958Z AUTO 24007KT 10SM CLR 07/01 A2985 RMK AO2 SLP111 T00720008 $

More Conditions Fewer Conditions

10-Day Weather Forecast

Almanac

Astronomy

Apr. 21, 2015 Rise Set
Actual Time
Civil Twilight
Nautical Twilight
Astronomical Twilight
Moon
Length of Visible Light
Length of Day
Tomorrow will be .
, % of the Moon is Illuminated

Today's Extremes

State Highs State Lows

Community

WunderPhotos

Upload Photos

1,815,337 photos uploaded!

WunderBlogs® & News

Nearby

Air Quality

  Air Quality AQ Index Pollutant
Not available.

Snow Depth

Station Depth Elevation

Earthquake Activity

City Distance Mag. Time & Date
Minimum magnitude displayed is 2.5.

Coastal Water Temperatures

Place Temperature

Stations

Nearby Weather Stations

Station Location Temp. Windchill Dew Point Humidity Wind Precip. Elev Updated Type